createdAt,value
2023-02-17T00:00:55.711Z,102366.78
2023-02-17T00:03:23.189Z,102369.59
2023-02-17T00:05:51.165Z,102367.40
2023-02-17T00:08:19.194Z,102367.84
2023-02-17T00:10:45.887Z,102371.05
2023-02-17T00:13:12.564Z,102372.20
2023-02-17T00:15:39.902Z,102374.89
2023-02-17T00:18:06.698Z,102372.65
2023-02-17T00:20:33.477Z,102372.45
2023-02-17T00:23:00.183Z,102372.81
2023-02-17T00:25:26.899Z,102374.18
2023-02-17T00:27:53.635Z,102371.65
2023-02-17T00:30:20.466Z,102372.09
2023-02-17T00:32:47.223Z,102383.80
2023-02-17T00:35:14.555Z,102389.14
2023-02-17T00:37:45.622Z,102387.03
2023-02-17T00:40:13.762Z,102381.14
2023-02-17T00:42:40.763Z,102381.08
2023-02-17T00:45:08.267Z,102379.67
2023-02-17T00:47:34.931Z,102375.93
2023-02-17T00:50:01.740Z,102375.69
2023-02-17T00:52:28.511Z,102380.36
2023-02-17T00:54:55.266Z,102374.66
2023-02-17T00:57:22.001Z,102373.40
2023-02-17T00:59:48.640Z,102373.05
2023-02-17T01:02:15.341Z,102370.62
2023-02-17T01:04:42.250Z,102367.85
2023-02-17T01:07:09.512Z,102371.52
2023-02-17T01:09:36.770Z,102366.48
2023-02-17T01:12:04.002Z,102368.10
2023-02-17T01:14:31.695Z,102365.98
2023-02-17T01:16:58.488Z,102369.32
2023-02-17T01:19:26.326Z,102371.11
2023-02-17T01:21:53.422Z,102366.75
2023-02-17T01:24:20.075Z,102364.54
2023-02-17T01:26:46.760Z,102358.95
2023-02-17T01:29:13.646Z,102361.54
2023-02-17T01:31:41.096Z,102357.53
2023-02-17T01:34:12.032Z,102358.88
2023-02-17T01:36:39.206Z,102356.14
2023-02-17T01:39:06.072Z,102356.66
2023-02-17T01:41:32.764Z,102356.34
2023-02-17T01:44:09.690Z,102352.95
2023-02-17T01:46:39.377Z,102347.68
2023-02-17T01:49:17.852Z,102349.66
2023-02-17T01:51:53.890Z,102350.64
2023-02-17T01:54:30.747Z,102354.13
2023-02-17T01:57:01.404Z,102352.98
2023-02-17T01:59:29.759Z,102352.02
2023-02-17T02:02:01.637Z,102346.17
2023-02-17T02:04:31.963Z,102338.20
2023-02-17T02:06:59.815Z,102337.55
2023-02-17T02:09:41.641Z,102330.92
2023-02-17T02:12:24.582Z,102324.75
2023-02-17T02:14:52.889Z,102325.52
2023-02-17T02:17:38.360Z,102322.65
2023-02-17T02:20:32.859Z,102324.55
2023-02-17T02:23:19.027Z,102318.39
2023-02-17T02:26:16.978Z,102320.87
2023-02-17T02:29:10.853Z,102314.77
2023-02-17T02:31:50.467Z,102317.47
2023-02-17T02:34:23.874Z,102323.44
2023-02-17T02:36:54.262Z,102323.42
2023-02-17T02:39:26.842Z,102317.30
2023-02-17T02:41:58.488Z,102316.84
2023-02-17T02:44:25.425Z,102316.89
2023-02-17T02:47:42.408Z,102322.77
2023-02-17T02:50:14.263Z,102318.70
2023-02-17T02:52:56.898Z,102322.00
2023-02-17T02:55:30.852Z,102320.55
2023-02-17T02:58:13.901Z,102321.16
2023-02-17T03:01:03.965Z,102320.82
2023-02-17T03:03:47.256Z,102323.05
2023-02-17T03:06:40.431Z,102319.02
2023-02-17T03:09:12.895Z,102318.33
2023-02-17T03:11:42.127Z,102315.79
2023-02-17T03:14:16.291Z,102319.10
2023-02-17T03:16:46.680Z,102319.56
2023-02-17T03:19:15.181Z,102317.56
2023-02-17T03:21:49.187Z,102319.05
2023-02-17T03:24:16.153Z,102321.68
2023-02-17T03:26:43.437Z,102322.25
2023-02-17T03:29:10.386Z,102330.47
2023-02-17T03:31:37.684Z,102335.43
2023-02-17T03:34:06.157Z,102338.35
2023-02-17T03:36:33.630Z,102336.06
2023-02-17T03:39:00.405Z,102341.73
2023-02-17T03:41:27.571Z,102339.79
2023-02-17T03:43:54.613Z,102341.65
2023-02-17T03:46:21.490Z,102339.89
2023-02-17T03:48:48.159Z,102341.06
2023-02-17T03:51:19.367Z,102342.28
2023-02-17T03:53:46.440Z,102343.08
2023-02-17T03:56:14.381Z,102344.79
2023-02-17T03:58:42.020Z,102344.02
2023-02-17T04:01:10.794Z,102347.09
2023-02-17T04:03:39.386Z,102346.58
2023-02-17T04:06:08.019Z,102349.17
2023-02-17T04:08:35.031Z,102346.48
2023-02-17T04:11:04.215Z,102349.02
2023-02-17T04:13:31.506Z,102354.08
2023-02-17T04:15:58.907Z,102354.94
2023-02-17T04:18:25.690Z,102359.64
2023-02-17T04:20:54.386Z,102363.88
2023-02-17T04:23:21.237Z,102366.10
2023-02-17T04:25:48.406Z,102366.73
2023-02-17T04:28:16.979Z,102367.13
2023-02-17T04:30:48.572Z,102363.98
2023-02-17T04:33:16.556Z,102361.46
2023-02-17T04:35:43.424Z,102361.04
2023-02-17T04:38:10.763Z,102360.38
2023-02-17T04:40:38.232Z,102358.96
2023-02-17T04:43:05.606Z,102359.77
2023-02-17T04:45:32.372Z,102358.23
2023-02-17T04:47:59.072Z,102360.47
2023-02-17T04:50:25.622Z,102357.81
2023-02-17T04:52:52.450Z,102353.79
2023-02-17T04:55:19.305Z,102351.20
2023-02-17T04:57:45.959Z,102351.10
2023-02-17T05:00:12.747Z,102350.18
2023-02-17T05:02:39.457Z,102347.50
2023-02-17T05:05:06.299Z,102350.61
2023-02-17T05:07:33.096Z,102350.23
2023-02-17T05:09:59.769Z,102347.94
2023-02-17T05:12:26.562Z,102347.48
2023-02-17T05:14:53.114Z,102344.67
2023-02-17T05:17:19.746Z,102354.31
2023-02-17T05:19:46.401Z,102355.89
2023-02-17T05:22:13.188Z,102357.21
2023-02-17T05:24:39.810Z,102354.56
2023-02-17T05:27:06.497Z,102357.72
2023-02-17T05:29:33.132Z,102360.28
2023-02-17T05:32:00.020Z,102364.71
2023-02-17T05:34:27.073Z,102362.89
2023-02-17T05:36:53.802Z,102359.52
2023-02-17T05:39:23.029Z,102367.56
2023-02-17T05:41:49.787Z,102371.37
2023-02-17T05:44:16.439Z,102371.95
2023-02-17T05:46:43.305Z,102374.23
2023-02-17T05:49:10.528Z,102371.61
2023-02-17T05:51:37.320Z,102374.23
2023-02-17T05:54:04.452Z,102377.25
2023-02-17T05:56:31.600Z,102381.75
2023-02-17T05:58:58.590Z,102383.55
2023-02-17T06:01:25.339Z,102388.44
2023-02-17T06:03:51.927Z,102392.98
2023-02-17T06:06:18.798Z,102390.63
2023-02-17T06:08:45.558Z,102393.85
2023-02-17T06:11:12.164Z,102406.70
2023-02-17T06:13:38.961Z,102408.08
2023-02-17T06:16:06.413Z,102415.02
2023-02-17T06:18:33.450Z,102420.21
2023-02-17T06:21:00.394Z,102425.11
2023-02-17T06:23:28.081Z,102422.66
2023-02-17T06:25:55.323Z,102424.02
2023-02-17T06:28:22.066Z,102426.21
2023-02-17T06:30:49.303Z,102428.71
2023-02-17T06:33:16.065Z,102429.84
2023-02-17T06:35:44.580Z,102430.43
2023-02-17T06:38:11.392Z,102436.40
2023-02-17T06:40:38.005Z,102439.04
2023-02-17T06:43:06.993Z,102435.36
2023-02-17T06:45:35.001Z,102434.02
2023-02-17T06:48:01.883Z,102437.34
2023-02-17T06:50:28.748Z,102431.38
2023-02-17T06:52:55.415Z,102430.77
2023-02-17T06:55:22.184Z,102433.19
2023-02-17T06:57:48.855Z,102432.91
2023-02-17T07:00:15.816Z,102437.63
2023-02-17T07:02:42.599Z,102442.80
2023-02-17T07:05:10.008Z,102442.09
2023-02-17T07:07:36.794Z,102446.71
2023-02-17T07:10:03.618Z,102446.43
2023-02-17T07:12:30.450Z,102446.81
2023-02-17T07:14:57.076Z,102448.60
2023-02-17T07:17:24.552Z,102447.55
2023-02-17T07:19:51.233Z,102444.86
2023-02-17T07:22:17.924Z,102447.06
2023-02-17T07:24:44.671Z,102444.40
2023-02-17T07:27:11.423Z,102445.52
2023-02-17T07:29:38.108Z,102447.16
2023-02-17T07:32:04.875Z,102450.96
2023-02-17T07:34:31.745Z,102453.13
2023-02-17T07:36:58.527Z,102450.17
2023-02-17T07:39:25.159Z,102452.94
2023-02-17T07:41:51.909Z,102458.41
2023-02-17T07:44:18.498Z,102455.29
2023-02-17T07:46:45.288Z,102454.48
2023-02-17T07:49:12.385Z,102460.67
2023-02-17T07:51:39.066Z,102454.95
2023-02-17T07:54:06.022Z,102455.05
2023-02-17T07:56:33.833Z,102458.83
2023-02-17T07:59:00.648Z,102456.92
2023-02-17T08:01:27.274Z,102457.23
2023-02-17T08:03:54.422Z,102457.70
2023-02-17T08:06:23.975Z,102460.08
2023-02-17T08:09:10.432Z,102455.57
2023-02-17T08:11:56.299Z,102453.14
2023-02-17T08:14:25.388Z,102453.73
2023-02-17T08:16:52.851Z,102453.39
2023-02-17T08:19:20.194Z,102455.86
2023-02-17T08:21:47.566Z,102456.81
2023-02-17T08:24:16.462Z,102457.80
2023-02-17T08:26:43.351Z,102456.49
2023-02-17T08:29:10.018Z,102456.08
2023-02-17T08:31:37.283Z,102453.73
2023-02-17T08:34:09.607Z,102449.89
2023-02-17T08:36:39.395Z,102453.81
2023-02-17T08:39:10.448Z,102459.78
2023-02-17T08:41:38.905Z,102458.39
2023-02-17T08:44:11.816Z,102458.80
2023-02-17T08:46:39.185Z,102462.27
2023-02-17T08:49:07.686Z,102463.16
2023-02-17T08:51:35.145Z,102466.19
2023-02-17T08:54:03.898Z,102467.15
2023-02-17T08:56:31.102Z,102463.23
2023-02-17T08:58:57.813Z,102463.17
2023-02-17T09:01:24.985Z,102464.30
2023-02-17T09:03:54.655Z,102464.44
2023-02-17T09:06:21.602Z,102464.52
2023-02-17T09:08:49.735Z,102466.56
2023-02-17T09:11:19.855Z,102465.60
2023-02-17T09:13:47.002Z,102464.88
2023-02-17T09:16:14.349Z,102460.58
2023-02-17T09:18:41.232Z,102465.14
2023-02-17T09:21:11.643Z,102463.48
2023-02-17T09:23:38.499Z,102459.87
2023-02-17T09:26:07.928Z,102457.02
2023-02-17T09:28:35.177Z,102459.09
2023-02-17T09:31:20.506Z,102462.17
2023-02-17T09:33:48.844Z,102459.73
2023-02-17T09:36:18.628Z,102458.00
2023-02-17T09:38:45.932Z,102455.52
2023-02-17T09:41:37.947Z,102457.67
2023-02-17T09:44:19.006Z,102457.15
2023-02-17T09:47:05.733Z,102457.02
2023-02-17T09:49:40.024Z,102452.66
2023-02-17T09:52:38.858Z,102455.60
2023-02-17T09:55:13.838Z,102448.89
2023-02-17T09:58:03.417Z,102450.05
2023-02-17T10:00:35.337Z,102455.21
2023-02-17T10:03:43.233Z,102455.41
2023-02-17T10:06:18.488Z,102457.14
2023-02-17T10:08:53.709Z,102454.10
2023-02-17T10:11:34.320Z,102452.38
2023-02-17T10:14:17.864Z,102451.80
2023-02-17T10:16:51.844Z,102456.83
2023-02-17T10:19:29.571Z,102452.02
2023-02-17T10:22:05.902Z,102451.91
2023-02-17T10:24:32.707Z,102452.90
2023-02-17T10:27:12.054Z,102450.92
2023-02-17T10:30:20.833Z,102454.17
2023-02-17T10:32:56.864Z,102453.41
2023-02-17T10:35:46.927Z,102449.48
2023-02-17T10:38:18.190Z,102442.78
2023-02-17T10:40:49.842Z,102442.67
2023-02-17T10:43:24.378Z,102444.09
2023-02-17T10:45:51.602Z,102439.92
2023-02-17T10:48:26.299Z,102438.38
2023-02-17T10:50:57.795Z,102437.84
2023-02-17T10:53:29.461Z,102433.88
2023-02-17T10:56:12.095Z,102425.37
2023-02-17T10:59:06.689Z,102426.01
2023-02-17T11:01:34.030Z,102421.73
2023-02-17T11:04:07.508Z,102415.92
2023-02-17T11:06:52.385Z,102409.90
2023-02-17T11:09:29.508Z,102402.87
2023-02-17T11:12:15.028Z,102393.66
2023-02-17T11:14:47.440Z,102390.50
2023-02-17T11:17:21.135Z,102391.19
2023-02-17T11:19:57.210Z,102385.28
2023-02-17T11:22:45.253Z,102384.80
2023-02-17T11:25:22.666Z,102378.24
2023-02-17T11:28:15.238Z,102371.27
2023-02-17T11:30:52.046Z,102365.30
2023-02-17T11:33:40.582Z,102366.64
2023-02-17T11:36:13.714Z,102361.34
2023-02-17T11:38:40.421Z,102354.52
2023-02-17T11:41:08.501Z,102356.41
2023-02-17T11:43:37.890Z,102353.75
2023-02-17T11:46:41.462Z,102346.68
2023-02-17T11:49:23.321Z,102344.34
2023-02-17T11:52:03.619Z,102341.73
2023-02-17T11:54:43.079Z,102337.97
2023-02-17T11:57:34.759Z,102332.59
2023-02-17T12:00:22.780Z,102329.27
2023-02-17T12:03:11.188Z,102331.77
2023-02-17T12:05:54.659Z,102330.34
2023-02-17T12:08:33.633Z,102327.01
2023-02-17T12:11:16.930Z,102321.90
2023-02-17T12:14:06.188Z,102322.42
2023-02-17T12:17:01.877Z,102317.83
2023-02-17T12:19:36.918Z,102313.85
2023-02-17T12:22:45.581Z,102316.11
2023-02-17T12:25:29.148Z,102313.63
2023-02-17T12:28:08.229Z,102306.82
2023-02-17T12:31:12.761Z,102304.38
2023-02-17T12:33:48.836Z,102298.67
2023-02-17T12:36:18.582Z,102296.43
2023-02-17T12:38:52.338Z,102294.55
2023-02-17T12:41:41.273Z,102290.05
2023-02-17T12:44:18.632Z,102286.99
2023-02-17T12:46:50.892Z,102285.64
2023-02-17T12:49:25.323Z,102282.17
2023-02-17T12:52:11.227Z,102281.80
2023-02-17T12:54:56.014Z,102280.20
2023-02-17T12:57:30.205Z,102272.95
2023-02-17T12:59:58.787Z,102270.67
2023-02-17T13:02:26.532Z,102270.80
2023-02-17T13:05:01.708Z,102262.63
2023-02-17T13:07:31.757Z,102253.29
2023-02-17T13:09:58.779Z,102251.89
2023-02-17T13:12:25.590Z,102255.20
2023-02-17T13:14:57.714Z,102248.21
2023-02-17T13:17:55.666Z,102251.56
2023-02-17T13:20:38.769Z,102249.14
2023-02-17T13:23:11.047Z,102239.11
2023-02-17T13:25:38.261Z,102228.15
2023-02-17T13:28:19.791Z,102225.27
2023-02-17T13:30:48.848Z,102221.95
2023-02-17T13:33:21.544Z,102218.46
2023-02-17T13:35:49.430Z,102218.55
2023-02-17T13:38:30.164Z,102217.67
2023-02-17T13:41:04.481Z,102214.85
2023-02-17T13:43:40.244Z,102211.69
2023-02-17T13:46:08.110Z,102215.21
2023-02-17T13:48:36.311Z,102212.56
2023-02-17T13:51:09.952Z,102205.57
2023-02-17T13:53:40.019Z,102207.87
2023-02-17T13:56:10.768Z,102211.30
2023-02-17T13:58:42.283Z,102213.08
2023-02-17T14:01:16.894Z,102216.55
2023-02-17T14:03:50.851Z,102213.97
2023-02-17T14:06:41.068Z,102212.82
2023-02-17T14:09:29.585Z,102210.54
2023-02-17T14:11:57.572Z,102206.51
2023-02-17T14:14:29.237Z,102208.55
2023-02-17T14:17:02.090Z,102199.83
2023-02-17T14:19:29.660Z,102202.20
2023-02-17T14:21:56.343Z,102201.19
2023-02-17T14:24:40.015Z,102203.00
2023-02-17T14:27:08.951Z,102208.38
2023-02-17T14:29:48.065Z,102204.61
2023-02-17T14:32:27.060Z,102200.71
2023-02-17T14:34:53.712Z,102202.36
2023-02-17T14:37:25.049Z,102203.34
2023-02-17T14:39:51.832Z,102203.30
2023-02-17T14:42:18.623Z,102201.02
2023-02-17T14:44:45.349Z,102196.69
2023-02-17T14:47:12.074Z,102193.73
2023-02-17T14:49:38.766Z,102194.56
2023-02-17T14:52:31.946Z,102190.85
2023-02-17T14:55:00.006Z,102193.34
2023-02-17T14:57:27.863Z,102199.70
2023-02-17T14:59:57.767Z,102198.06
2023-02-17T15:02:25.736Z,102196.61
2023-02-17T15:04:52.479Z,102196.73
2023-02-17T15:07:19.525Z,102196.21
2023-02-17T15:09:48.626Z,102201.30
2023-02-17T15:12:21.847Z,102203.25
2023-02-17T15:14:48.646Z,102206.09
2023-02-17T15:17:16.022Z,102206.84
2023-02-17T15:19:45.068Z,102209.71
2023-02-17T15:22:15.054Z,102206.04
2023-02-17T15:24:42.059Z,102205.27
2023-02-17T15:27:14.674Z,102207.67
2023-02-17T15:29:41.783Z,102201.20
2023-02-17T15:32:20.281Z,102196.50
2023-02-17T15:34:47.169Z,102193.46
2023-02-17T15:37:13.817Z,102183.77
2023-02-17T15:39:40.490Z,102182.87
2023-02-17T15:42:13.682Z,102182.38
2023-02-17T15:44:44.309Z,102182.06
2023-02-17T15:47:17.388Z,102181.86
2023-02-17T15:49:44.580Z,102175.39
2023-02-17T15:52:13.973Z,102176.27
2023-02-17T15:54:42.730Z,102184.24
2023-02-17T15:57:21.115Z,102189.61
2023-02-17T15:59:47.980Z,102188.90
2023-02-17T16:02:23.458Z,102187.58
2023-02-17T16:05:08.493Z,102188.80
2023-02-17T16:07:36.375Z,102188.58
2023-02-17T16:10:05.599Z,102186.80
2023-02-17T16:12:32.911Z,102187.38
2023-02-17T16:14:59.707Z,102185.84
2023-02-17T16:17:27.078Z,102181.11
2023-02-17T16:19:53.815Z,102189.83
2023-02-17T16:22:20.509Z,102197.11
2023-02-17T16:24:47.180Z,102202.25
2023-02-17T16:27:16.346Z,102201.08
2023-02-17T16:29:43.596Z,102199.73
2023-02-17T16:32:13.521Z,102203.89
2023-02-17T16:34:40.893Z,102203.39
2023-02-17T16:37:18.068Z,102208.02
2023-02-17T16:39:45.799Z,102209.14
2023-02-17T16:42:14.879Z,102216.97
2023-02-17T16:44:42.425Z,102221.94
2023-02-17T16:47:19.651Z,102223.36
2023-02-17T16:49:47.706Z,102223.34
2023-02-17T16:52:26.662Z,102229.75
2023-02-17T16:54:54.328Z,102230.09
2023-02-17T16:57:21.649Z,102234.90
2023-02-17T16:59:48.427Z,102233.65
2023-02-17T17:02:15.233Z,102237.74
2023-02-17T17:04:42.003Z,102238.92
2023-02-17T17:07:13.402Z,102242.03
2023-02-17T17:09:40.881Z,102239.48
2023-02-17T17:12:07.948Z,102242.04
2023-02-17T17:14:34.666Z,102247.55
2023-02-17T17:17:02.346Z,102252.20
2023-02-17T17:19:29.108Z,102258.93
2023-02-17T17:21:55.856Z,102257.54
2023-02-17T17:24:22.575Z,102261.36
2023-02-17T17:26:51.332Z,102263.20
2023-02-17T17:29:19.577Z,102259.06
2023-02-17T17:31:46.669Z,102261.28
2023-02-17T17:34:13.647Z,102263.55
2023-02-17T17:36:43.462Z,102270.08
2023-02-17T17:39:20.784Z,102270.16
2023-02-17T17:41:47.980Z,102273.73
2023-02-17T17:44:15.503Z,102274.95
2023-02-17T17:46:43.622Z,102274.30
2023-02-17T17:49:13.464Z,102273.30
2023-02-17T17:51:40.915Z,102271.70
2023-02-17T17:54:08.361Z,102279.58
2023-02-17T17:56:38.953Z,102285.46
2023-02-17T17:59:06.944Z,102287.58
2023-02-17T18:01:34.149Z,102295.02
2023-02-17T18:04:01.604Z,102301.15
2023-02-17T18:06:37.490Z,102299.66
2023-02-17T18:09:07.085Z,102301.85
2023-02-17T18:11:35.478Z,102301.27
2023-02-17T18:14:06.663Z,102297.70
2023-02-17T18:16:35.197Z,102299.58
2023-02-17T18:19:04.423Z,102301.92
2023-02-17T18:21:31.085Z,102302.95
2023-02-17T18:23:57.762Z,102305.14
2023-02-17T18:26:24.517Z,102307.29
2023-02-17T18:28:51.235Z,102318.50
2023-02-17T18:31:19.339Z,102319.02
2023-02-17T18:33:46.300Z,102318.19
2023-02-17T18:36:16.432Z,102316.95
2023-02-17T18:38:44.356Z,102318.35
2023-02-17T18:41:24.221Z,102320.14
2023-02-17T18:43:51.816Z,102316.91
2023-02-17T18:46:19.345Z,102315.27
2023-02-17T18:48:46.586Z,102314.17
2023-02-17T18:51:15.286Z,102318.23
2023-02-17T18:53:42.654Z,102324.53
2023-02-17T18:56:14.666Z,102330.14
2023-02-17T18:58:41.714Z,102332.11
2023-02-17T19:01:18.428Z,102330.95
2023-02-17T19:03:45.656Z,102334.90
2023-02-17T19:06:16.312Z,102340.58
2023-02-17T19:08:47.830Z,102342.71
2023-02-17T19:11:16.476Z,102345.26
2023-02-17T19:13:43.275Z,102345.64
2023-02-17T19:16:16.316Z,102341.42
2023-02-17T19:18:44.495Z,102341.77
2023-02-17T19:21:12.056Z,102343.71
2023-02-17T19:23:39.217Z,102349.35
2023-02-17T19:26:07.788Z,102344.60
2023-02-17T19:28:37.664Z,102349.05
2023-02-17T19:31:16.887Z,102349.65
2023-02-17T19:33:45.739Z,102352.67
2023-02-17T19:36:16.115Z,102355.92
2023-02-17T19:38:43.141Z,102353.41
2023-02-17T19:41:11.725Z,102351.74
2023-02-17T19:43:39.378Z,102346.61
2023-02-17T19:46:06.708Z,102346.21
2023-02-17T19:48:34.512Z,102345.97
2023-02-17T19:51:04.986Z,102349.05
2023-02-17T19:53:33.223Z,102351.18
2023-02-17T19:56:27.258Z,102345.96
2023-02-17T19:58:55.374Z,102339.90
2023-02-17T20:01:24.068Z,102342.89
2023-02-17T20:03:52.314Z,102338.67
2023-02-17T20:06:21.903Z,102341.77
2023-02-17T20:09:03.125Z,102342.33
2023-02-17T20:11:32.021Z,102337.46
2023-02-17T20:14:00.005Z,102339.83
2023-02-17T20:16:28.163Z,102341.06
2023-02-17T20:18:55.796Z,102344.16
2023-02-17T20:21:28.233Z,102347.41
2023-02-17T20:23:55.984Z,102349.61
2023-02-17T20:26:26.669Z,102352.64
2023-02-17T20:28:54.543Z,102349.27
2023-02-17T20:31:21.956Z,102339.48
2023-02-17T20:33:48.804Z,102343.02
2023-02-17T20:36:15.700Z,102347.27
2023-02-17T20:38:42.470Z,102354.31
2023-02-17T20:41:14.099Z,102353.04
2023-02-17T20:43:40.841Z,102355.41
2023-02-17T20:46:08.271Z,102353.91
2023-02-17T20:48:35.323Z,102356.67
2023-02-17T20:51:04.232Z,102353.98
2023-02-17T20:53:31.220Z,102349.02
2023-02-17T20:55:57.956Z,102354.31
2023-02-17T20:58:24.690Z,102351.88
2023-02-17T21:00:51.539Z,102345.13
2023-02-17T21:03:18.323Z,102343.55
2023-02-17T21:05:45.676Z,102341.21
2023-02-17T21:08:12.416Z,102341.23
2023-02-17T21:10:40.848Z,102348.20
2023-02-17T21:13:07.737Z,102346.67
2023-02-17T21:15:34.939Z,102345.44
2023-02-17T21:18:01.817Z,102349.72
2023-02-17T21:20:28.595Z,102351.59
2023-02-17T21:22:55.349Z,102350.75
2023-02-17T21:25:22.270Z,102346.85
2023-02-17T21:27:49.212Z,102345.77
2023-02-17T21:30:16.099Z,102346.91
2023-02-17T21:32:43.212Z,102341.77
2023-02-17T21:35:11.217Z,102345.63
2023-02-17T21:37:41.388Z,102345.05
2023-02-17T21:40:09.626Z,102345.58
2023-02-17T21:42:58.440Z,102350.43
2023-02-17T21:45:26.088Z,102353.05
2023-02-17T21:47:52.779Z,102353.92
2023-02-17T21:50:23.407Z,102354.29
2023-02-17T21:52:50.250Z,102357.17
2023-02-17T21:55:16.977Z,102357.61
2023-02-17T21:57:43.704Z,102350.29
2023-02-17T22:00:11.318Z,102352.55
2023-02-17T22:02:42.908Z,102355.05
2023-02-17T22:05:11.228Z,102355.77
2023-02-17T22:07:38.634Z,102353.36
2023-02-17T22:10:10.188Z,102358.82
2023-02-17T22:12:39.180Z,102354.77
2023-02-17T22:15:07.360Z,102355.96
2023-02-17T22:17:35.821Z,102350.70
2023-02-17T22:20:05.179Z,102350.96
2023-02-17T22:22:33.805Z,102349.80
2023-02-17T22:25:01.690Z,102353.35
2023-02-17T22:27:29.148Z,102352.73
2023-02-17T22:29:56.946Z,102344.66
2023-02-17T22:32:24.131Z,102340.00
2023-02-17T22:34:51.105Z,102337.79
2023-02-17T22:37:18.451Z,102336.21
2023-02-17T22:39:45.733Z,102334.34
2023-02-17T22:42:14.001Z,102343.78
2023-02-17T22:44:41.297Z,102349.81
2023-02-17T22:47:08.713Z,102348.73
2023-02-17T22:49:36.267Z,102342.85
2023-02-17T22:52:04.345Z,102343.30
2023-02-17T22:54:34.814Z,102348.87
2023-02-17T22:57:05.812Z,102354.27
2023-02-17T22:59:35.956Z,102355.40
2023-02-17T23:02:03.292Z,102352.23
2023-02-17T23:04:32.089Z,102349.41
2023-02-17T23:06:59.741Z,102349.10
2023-02-17T23:09:26.938Z,102347.05
2023-02-17T23:11:54.580Z,102353.59
2023-02-17T23:14:34.347Z,102355.73
2023-02-17T23:17:11.280Z,102351.63
2023-02-17T23:19:40.774Z,102351.23
2023-02-17T23:22:12.144Z,102348.21
2023-02-17T23:24:42.411Z,102343.20
2023-02-17T23:27:10.587Z,102344.63
2023-02-17T23:29:39.580Z,102341.49
2023-02-17T23:32:10.723Z,102341.13
2023-02-17T23:34:38.855Z,102344.63
2023-02-17T23:37:15.812Z,102341.63
2023-02-17T23:39:59.988Z,102343.41
2023-02-17T23:42:49.566Z,102342.01
2023-02-17T23:45:18.252Z,102339.77
2023-02-17T23:47:51.852Z,102337.19
2023-02-17T23:50:19.558Z,102338.86
2023-02-17T23:52:47.532Z,102337.50
2023-02-17T23:55:15.805Z,102333.47
2023-02-17T23:57:43.057Z,102330.58
